Startpagina
METAR-TAF:

METAR-TAF

Vliegvelden :

Luchthaven Rijeka

Rijeka, Kroatië

breedte: 45-13N, lengte: 014-35E, hoogte: 85 m

Actueel weer

Dit bericht is 14 minuten geleden gemaakt, om 11:00 UTC
Wind 5 kt uit het westen, variërend tussen het zuidwesten en het noordnoordwesten
Temperatuur 18°C
Vochtigheid 49%
Druk 1028 hPa
Zicht 10 km of meer
geen wolken onder 1500 m en geen cumulonimbus

METAR: LDRI 141100Z 27005KT 220V330 CAVOK 18/07 Q1028

Tijdstip: 12:14 (11:14 UTC)

Verwachting

Dit bericht is 5 uur en het 49 minuten geleden gemaakt, om 05:25 UTC
Verwachting geldig van 14 om 06 UTC tot 15 om 06 UTC
Wind 10 kt uit het oosten
Zicht 10 km of meer
geen wolken onder 1500 m en geen cumulonimbus
Wijzigt naar
van 14 om 06 UTC tot 14 om 08 UTC
Wind 2 kt uit variabele richting

TAF: LDRI 140525Z 1406/1506 09010KT CAVOK TX16/1413Z TN08/1504Z BECMG 1406/1408 VRB02KT

Waarnemingen en weersverwachtingen van meer dan 4000 vliegvelden (METAR en TAF).

De beschikbare stations zijn de gele en rode punten op de kaart.

Ga met uw muis naar het station om de naam te zien.

Klik dan om waarnemingen en weersverwachtingen te zien.

kaart wijzigen: klik op de groene knoppen met een zwart kruis om in te zoomen, op de groene knop met een streepje om uit te zoomen of op de groene pijlen voor aangrenzende kaarten.


METAR-TAF: